TimeMST,TemperatureF,Dew PointF,Humidity,Sea Level PressureIn,VisibilityMPH,Wind Direction,Wind SpeedMPH,Gust SpeedMPH,PrecipitationIn,Events,Conditions,WindDirDegrees,DateUTC
12:53 AM,66.9,35.1,31,29.80,10.0,SSE,5.8,-,N/A,,Clear,160,2012-10-20 07:53:00
1:53 AM,66.9,36.0,32,29.79,10.0,SSE,3.5,-,N/A,,Clear,150,2012-10-20 08:53:00
2:53 AM,64.0,36.0,35,29.79,10.0,SE,3.5,-,N/A,,Clear,130,2012-10-20 09:53:00
3:53 AM,63.0,35.1,35,29.78,10.0,SE,6.9,-,N/A,,Clear,140,2012-10-20 10:53:00
4:53 AM,62.1,36.0,38,29.79,10.0,SSE,6.9,-,N/A,,Clear,150,2012-10-20 11:53:00
5:53 AM,63.0,37.0,38,29.81,10.0,SE,9.2,-,N/A,,Clear,140,2012-10-20 12:53:00
6:53 AM,62.1,37.9,41,29.83,10.0,SE,9.2,-,N/A,,Clear,140,2012-10-20 13:53:00
7:53 AM,66.9,39.0,36,29.84,10.0,SSE,8.1,-,N/A,,Clear,150,2012-10-20 14:53:00
8:53 AM,71.1,39.0,31,29.84,10.0,Calm,Calm,-,N/A,,Clear,0,2012-10-20 15:53:00
9:53 AM,78.1,39.0,25,29.83,10.0,Calm,Calm,-,N/A,,Clear,0,2012-10-20 16:53:00
10:53 AM,82.9,37.0,19,29.81,10.0,North,4.6,-,N/A,,Clear,360,2012-10-20 17:53:00
11:53 AM,84.2,37.4,19,29.92,10.0,Variable,3.5,-,N/A,,Clear,0,2012-10-20 18:53:00
12:53 PM,87.1,39.0,18,29.76,10.0,West,9.2,-,N/A,,Clear,280,2012-10-20 19:53:00
1:53 PM,87.1,39.9,19,29.73,10.0,West,3.5,-,N/A,,Clear,260,2012-10-20 20:53:00
2:53 PM,88.0,39.9,18,29.72,10.0,WNW,6.9,-,N/A,,Clear,290,2012-10-20 21:53:00
3:53 PM,87.1,41.0,20,29.72,10.0,West,6.9,-,N/A,,Clear,280,2012-10-20 22:53:00
4:53 PM,86.0,39.9,20,29.72,10.0,WSW,10.4,-,N/A,,Clear,250,2012-10-20 23:53:00
5:53 PM,82.9,43.0,24,29.73,10.0,West,6.9,-,N/A,,Clear,270,2012-10-21 00:53:00
6:53 PM,79.0,43.0,28,29.75,10.0,West,6.9,-,N/A,,Clear,260,2012-10-21 01:53:00
7:53 PM,77.0,43.0,30,29.76,10.0,West,4.6,-,N/A,,Clear,270,2012-10-21 02:53:00
8:53 PM,75.0,44.1,33,29.78,10.0,Calm,Calm,-,N/A,,Clear,0,2012-10-21 03:53:00
9:53 PM,72.0,43.0,35,29.78,10.0,Calm,Calm,-,N/A,,Clear,0,2012-10-21 04:53:00
10:53 PM,70.0,44.1,39,29.78,10.0,SSE,6.9,-,N/A,,Clear,150,2012-10-21 05:53:00
11:53 PM,69.1,45.0,42,29.78,10.0,Calm,Calm,-,N/A,,Clear,0,2012-10-21 06:53:00